Dalton City, Illinois
Current Conditions -  °F | °C
As of 9:54 PM on Tuesday 25 Nov 2014 (Local Time) from KDEC Reporting Station
Clear Clear  
Wind Chill: -7°   Ceiling: Unl
Heat Index: -4°   Visibility: 10mi
Dew Point: -6°   Wind: 5mph
Humidity: 85%   Direction: 130°SE
Pressure: 30.2"   Gusts: NA
Location:  39.71°N, 88.8°W
Report Text: KDEC 260354Z 13004KT 10SM CLR M04/M06 A3020 RMK AO2 SLP234 T10391061
Loading
Personal Weather Stations






























Interactive Weather Map New forecast layout! Learn more

10-Day Weather Forecast

Advertisements
Track Severe Weather on mobile